sensor_id;sensor_type;location;lat;lon;timestamp;P1;durP1;ratioP1;P2;durP2;ratioP2
81229;SDS011;70701;44.452;18.652;2023-06-14T00:01:01;12.30;;;8.20;;
81229;SDS011;70701;44.452;18.652;2023-06-14T00:03:28;12.73;;;7.60;;
81229;SDS011;70701;44.452;18.652;2023-06-14T00:05:55;14.00;;;9.38;;
81229;SDS011;70701;44.452;18.652;2023-06-14T00:08:20;15.07;;;8.23;;
81229;SDS011;70701;44.452;18.652;2023-06-14T00:10:48;13.57;;;9.15;;
81229;SDS011;70701;44.452;18.652;2023-06-14T00:13:14;13.25;;;9.00;;
81229;SDS011;70701;44.452;18.652;2023-06-14T00:15:39;14.95;;;8.93;;
81229;SDS011;70701;44.452;18.652;2023-06-14T00:18:07;15.55;;;8.55;;
81229;SDS011;70701;44.452;18.652;2023-06-14T00:20:34;12.88;;;8.75;;
81229;SDS011;70701;44.452;18.652;2023-06-14T00:23:00;17.70;;;8.68;;
81229;SDS011;70701;44.452;18.652;2023-06-14T00:25:26;12.77;;;8.15;;
81229;SDS011;70701;44.452;18.652;2023-06-14T00:27:53;14.20;;;8.43;;
81229;SDS011;70701;44.452;18.652;2023-06-14T00:30:19;13.35;;;9.02;;
81229;SDS011;70701;44.452;18.652;2023-06-14T00:32:46;15.35;;;9.30;;
81229;SDS011;70701;44.452;18.652;2023-06-14T00:35:12;11.75;;;7.63;;
81229;SDS011;70701;44.452;18.652;2023-06-14T00:37:38;10.73;;;6.45;;
81229;SDS011;70701;44.452;18.652;2023-06-14T00:40:05;10.73;;;6.45;;
81229;SDS011;70701;44.452;18.652;2023-06-14T00:42:31;7.97;;;5.85;;
81229;SDS011;70701;44.452;18.652;2023-06-14T00:44:57;7.13;;;4.93;;
81229;SDS011;70701;44.452;18.652;2023-06-14T00:47:23;9.48;;;6.18;;
81229;SDS011;70701;44.452;18.652;2023-06-14T00:49:50;9.60;;;5.97;;
81229;SDS011;70701;44.452;18.652;2023-06-14T00:52:17;10.48;;;6.35;;
81229;SDS011;70701;44.452;18.652;2023-06-14T00:54:43;10.77;;;6.05;;
81229;SDS011;70701;44.452;18.652;2023-06-14T00:57:09;9.77;;;6.22;;
81229;SDS011;70701;44.452;18.652;2023-06-14T00:59:46;7.80;;;5.50;;
81229;SDS011;70701;44.452;18.652;2023-06-14T01:02:12;9.00;;;6.78;;
81229;SDS011;70701;44.452;18.652;2023-06-14T01:04:42;10.85;;;6.47;;
81229;SDS011;70701;44.452;18.652;2023-06-14T01:12:59;10.40;;;6.95;;
81229;SDS011;70701;44.452;18.652;2023-06-14T01:15:32;12.93;;;7.53;;
81229;SDS011;70701;44.452;18.652;2023-06-14T01:18:00;11.93;;;6.88;;
81229;SDS011;70701;44.452;18.652;2023-06-14T01:20:30;11.40;;;7.18;;
81229;SDS011;70701;44.452;18.652;2023-06-14T01:22:58;11.75;;;7.60;;
81229;SDS011;70701;44.452;18.652;2023-06-14T01:25:25;11.30;;;7.15;;
81229;SDS011;70701;44.452;18.652;2023-06-14T01:28:01;11.07;;;7.10;;
81229;SDS011;70701;44.452;18.652;2023-06-14T01:30:36;8.85;;;6.55;;
81229;SDS011;70701;44.452;18.652;2023-06-14T01:33:20;9.52;;;6.22;;
81229;SDS011;70701;44.452;18.652;2023-06-14T01:35:48;10.65;;;7.07;;
81229;SDS011;70701;44.452;18.652;2023-06-14T01:38:15;8.55;;;6.43;;
81229;SDS011;70701;44.452;18.652;2023-06-14T01:40:45;11.35;;;6.72;;
81229;SDS011;70701;44.452;18.652;2023-06-14T01:43:15;9.15;;;6.38;;
81229;SDS011;70701;44.452;18.652;2023-06-14T01:45:42;19.05;;;8.77;;
81229;SDS011;70701;44.452;18.652;2023-06-14T01:48:10;13.05;;;6.53;;
81229;SDS011;70701;44.452;18.652;2023-06-14T01:50:36;12.90;;;6.53;;
81229;SDS011;70701;44.452;18.652;2023-06-14T01:53:03;8.77;;;6.28;;
81229;SDS011;70701;44.452;18.652;2023-06-14T01:55:35;9.07;;;6.05;;
81229;SDS011;70701;44.452;18.652;2023-06-14T01:58:05;12.82;;;6.30;;
81229;SDS011;70701;44.452;18.652;2023-06-14T02:00:31;12.43;;;7.43;;
81229;SDS011;70701;44.452;18.652;2023-06-14T02:02:57;10.25;;;6.97;;
81229;SDS011;70701;44.452;18.652;2023-06-14T02:05:25;10.60;;;6.78;;
81229;SDS011;70701;44.452;18.652;2023-06-14T02:07:51;10.40;;;6.18;;
81229;SDS011;70701;44.452;18.652;2023-06-14T02:10:21;9.48;;;6.80;;
81229;SDS011;70701;44.452;18.652;2023-06-14T02:12:47;11.38;;;6.90;;
81229;SDS011;70701;44.452;18.652;2023-06-14T02:15:13;8.60;;;6.07;;
81229;SDS011;70701;44.452;18.652;2023-06-14T02:17:45;10.35;;;6.75;;
81229;SDS011;70701;44.452;18.652;2023-06-14T02:20:12;10.77;;;7.00;;
81229;SDS011;70701;44.452;18.652;2023-06-14T02:22:38;15.43;;;7.50;;
81229;SDS011;70701;44.452;18.652;2023-06-14T02:25:06;12.55;;;7.18;;
81229;SDS011;70701;44.452;18.652;2023-06-14T02:27:33;8.70;;;6.57;;
81229;SDS011;70701;44.452;18.652;2023-06-14T02:29:59;11.80;;;6.68;;
81229;SDS011;70701;44.452;18.652;2023-06-14T02:32:25;10.10;;;7.50;;
81229;SDS011;70701;44.452;18.652;2023-06-14T02:34:52;11.65;;;6.65;;
81229;SDS011;70701;44.452;18.652;2023-06-14T02:37:19;10.48;;;7.22;;
81229;SDS011;70701;44.452;18.652;2023-06-14T02:39:45;8.95;;;7.30;;
81229;SDS011;70701;44.452;18.652;2023-06-14T02:42:11;10.48;;;7.47;;
81229;SDS011;70701;44.452;18.652;2023-06-14T02:44:37;12.13;;;7.57;;
81229;SDS011;70701;44.452;18.652;2023-06-14T02:47:03;12.63;;;7.32;;
81229;SDS011;70701;44.452;18.652;2023-06-14T02:49:30;10.73;;;7.28;;
81229;SDS011;70701;44.452;18.652;2023-06-14T02:51:55;10.07;;;7.55;;
81229;SDS011;70701;44.452;18.652;2023-06-14T02:54:21;12.68;;;7.43;;
81229;SDS011;70701;44.452;18.652;2023-06-14T02:56:47;13.68;;;8.20;;
81229;SDS011;70701;44.452;18.652;2023-06-14T02:59:13;12.95;;;8.07;;
81229;SDS011;70701;44.452;18.652;2023-06-14T03:01:39;12.48;;;7.95;;
81229;SDS011;70701;44.452;18.652;2023-06-14T03:04:09;14.52;;;8.93;;
81229;SDS011;70701;44.452;18.652;2023-06-14T03:06:37;11.13;;;8.40;;
81229;SDS011;70701;44.452;18.652;2023-06-14T03:09:05;12.13;;;7.72;;
81229;SDS011;70701;44.452;18.652;2023-06-14T03:11:31;11.55;;;8.77;;
81229;SDS011;70701;44.452;18.652;2023-06-14T03:13:58;12.95;;;7.22;;
81229;SDS011;70701;44.452;18.652;2023-06-14T03:16:26;10.55;;;7.57;;
81229;SDS011;70701;44.452;18.652;2023-06-14T03:18:54;10.07;;;7.95;;
81229;SDS011;70701;44.452;18.652;2023-06-14T03:21:23;11.25;;;8.10;;
81229;SDS011;70701;44.452;18.652;2023-06-14T03:23:50;11.88;;;7.88;;
81229;SDS011;70701;44.452;18.652;2023-06-14T03:26:16;12.75;;;7.70;;
81229;SDS011;70701;44.452;18.652;2023-06-14T03:28:47;11.18;;;7.57;;
81229;SDS011;70701;44.452;18.652;2023-06-14T03:31:17;11.10;;;7.40;;
81229;SDS011;70701;44.452;18.652;2023-06-14T03:33:44;12.50;;;7.70;;
81229;SDS011;70701;44.452;18.652;2023-06-14T03:36:12;11.55;;;7.93;;
81229;SDS011;70701;44.452;18.652;2023-06-14T03:38:39;12.30;;;7.40;;
81229;SDS011;70701;44.452;18.652;2023-06-14T03:41:05;9.82;;;6.50;;
81229;SDS011;70701;44.452;18.652;2023-06-14T03:43:31;10.32;;;7.28;;
81229;SDS011;70701;44.452;18.652;2023-06-14T03:45:59;10.32;;;7.32;;
81229;SDS011;70701;44.452;18.652;2023-06-14T03:48:26;12.77;;;7.40;;
81229;SDS011;70701;44.452;18.652;2023-06-14T03:50:52;9.30;;;6.75;;
81229;SDS011;70701;44.452;18.652;2023-06-14T03:53:20;10.90;;;6.45;;
81229;SDS011;70701;44.452;18.652;2023-06-14T03:55:50;10.75;;;6.68;;
81229;SDS011;70701;44.452;18.652;2023-06-14T03:58:19;10.70;;;6.53;;
81229;SDS011;70701;44.452;18.652;2023-06-14T04:00:45;14.15;;;7.38;;
81229;SDS011;70701;44.452;18.652;2023-06-14T04:03:11;9.82;;;7.15;;
81229;SDS011;70701;44.452;18.652;2023-06-14T04:05:38;13.52;;;7.30;;
81229;SDS011;70701;44.452;18.652;2023-06-14T04:08:08;10.00;;;6.65;;
81229;SDS011;70701;44.452;18.652;2023-06-14T04:10:40;9.13;;;7.38;;
81229;SDS011;70701;44.452;18.652;2023-06-14T04:13:06;11.90;;;7.70;;
81229;SDS011;70701;44.452;18.652;2023-06-14T04:15:32;10.90;;;7.13;;
81229;SDS011;70701;44.452;18.652;2023-06-14T04:18:00;11.90;;;7.72;;
81229;SDS011;70701;44.452;18.652;2023-06-14T04:20:25;10.30;;;7.95;;
81229;SDS011;70701;44.452;18.652;2023-06-14T04:22:51;15.27;;;8.30;;
81229;SDS011;70701;44.452;18.652;2023-06-14T04:25:18;16.02;;;9.68;;
81229;SDS011;70701;44.452;18.652;2023-06-14T04:27:44;15.98;;;8.32;;
81229;SDS011;70701;44.452;18.652;2023-06-14T04:30:10;11.27;;;8.45;;
81229;SDS011;70701;44.452;18.652;2023-06-14T04:32:41;16.90;;;8.65;;
81229;SDS011;70701;44.452;18.652;2023-06-14T04:35:09;13.38;;;9.15;;
81229;SDS011;70701;44.452;18.652;2023-06-14T04:37:38;10.98;;;8.57;;
81229;SDS011;70701;44.452;18.652;2023-06-14T04:40:07;13.63;;;9.68;;
81229;SDS011;70701;44.452;18.652;2023-06-14T04:42:35;13.88;;;10.18;;
81229;SDS011;70701;44.452;18.652;2023-06-14T04:45:03;13.93;;;8.90;;
81229;SDS011;70701;44.452;18.652;2023-06-14T04:47:29;16.85;;;8.85;;
81229;SDS011;70701;44.452;18.652;2023-06-14T04:49:56;13.13;;;10.43;;
81229;SDS011;70701;44.452;18.652;2023-06-14T04:52:23;14.27;;;10.57;;
81229;SDS011;70701;44.452;18.652;2023-06-14T04:54:53;16.35;;;10.18;;
81229;SDS011;70701;44.452;18.652;2023-06-14T04:57:21;14.02;;;9.65;;
81229;SDS011;70701;44.452;18.652;2023-06-14T04:59:48;27.92;;;17.23;;
81229;SDS011;70701;44.452;18.652;2023-06-14T05:02:21;16.55;;;11.50;;
81229;SDS011;70701;44.452;18.652;2023-06-14T05:04:48;20.23;;;10.45;;
81229;SDS011;70701;44.452;18.652;2023-06-14T05:07:13;13.93;;;9.65;;
81229;SDS011;70701;44.452;18.652;2023-06-14T05:09:41;16.63;;;9.73;;
81229;SDS011;70701;44.452;18.652;2023-06-14T05:12:06;15.60;;;11.52;;
81229;SDS011;70701;44.452;18.652;2023-06-14T05:14:35;16.88;;;11.15;;
81229;SDS011;70701;44.452;18.652;2023-06-14T05:17:03;18.63;;;12.02;;
81229;SDS011;70701;44.452;18.652;2023-06-14T05:19:28;15.93;;;11.80;;
81229;SDS011;70701;44.452;18.652;2023-06-14T05:21:54;12.45;;;10.25;;
81229;SDS011;70701;44.452;18.652;2023-06-14T05:24:20;16.35;;;11.95;;
81229;SDS011;70701;44.452;18.652;2023-06-14T05:26:46;14.15;;;10.82;;
81229;SDS011;70701;44.452;18.652;2023-06-14T05:29:12;15.32;;;10.02;;
81229;SDS011;70701;44.452;18.652;2023-06-14T05:31:37;14.73;;;10.60;;
81229;SDS011;70701;44.452;18.652;2023-06-14T05:34:03;16.45;;;12.07;;
81229;SDS011;70701;44.452;18.652;2023-06-14T05:36:29;19.15;;;12.77;;
81229;SDS011;70701;44.452;18.652;2023-06-14T05:38:55;17.95;;;13.40;;
81229;SDS011;70701;44.452;18.652;2023-06-14T05:41:27;20.25;;;13.48;;
81229;SDS011;70701;44.452;18.652;2023-06-14T05:43:54;18.98;;;15.13;;
81229;SDS011;70701;44.452;18.652;2023-06-14T05:46:20;19.73;;;14.52;;
81229;SDS011;70701;44.452;18.652;2023-06-14T05:48:49;22.52;;;13.68;;
81229;SDS011;70701;44.452;18.652;2023-06-14T05:51:16;17.25;;;11.27;;
81229;SDS011;70701;44.452;18.652;2023-06-14T05:53:44;13.43;;;11.15;;
81229;SDS011;70701;44.452;18.652;2023-06-14T05:56:11;17.20;;;11.25;;
81229;SDS011;70701;44.452;18.652;2023-06-14T05:58:37;18.02;;;11.15;;
81229;SDS011;70701;44.452;18.652;2023-06-14T06:01:03;16.88;;;12.20;;
81229;SDS011;70701;44.452;18.652;2023-06-14T06:03:29;15.50;;;12.13;;
81229;SDS011;70701;44.452;18.652;2023-06-14T06:05:54;16.13;;;11.85;;
81229;SDS011;70701;44.452;18.652;2023-06-14T06:08:20;27.42;;;23.02;;
81229;SDS011;70701;44.452;18.652;2023-06-14T06:10:46;17.20;;;13.13;;
81229;SDS011;70701;44.452;18.652;2023-06-14T06:13:12;23.23;;;16.15;;
81229;SDS011;70701;44.452;18.652;2023-06-14T06:15:37;40.15;;;31.80;;
81229;SDS011;70701;44.452;18.652;2023-06-14T06:18:04;45.88;;;33.05;;
81229;SDS011;70701;44.452;18.652;2023-06-14T06:20:29;20.83;;;15.68;;
81229;SDS011;70701;44.452;18.652;2023-06-14T06:22:57;15.18;;;12.63;;
81229;SDS011;70701;44.452;18.652;2023-06-14T06:25:27;16.20;;;11.35;;
81229;SDS011;70701;44.452;18.652;2023-06-14T06:27:53;16.75;;;10.20;;
81229;SDS011;70701;44.452;18.652;2023-06-14T06:30:21;13.80;;;10.52;;
81229;SDS011;70701;44.452;18.652;2023-06-14T06:32:47;14.98;;;9.77;;
81229;SDS011;70701;44.452;18.652;2023-06-14T06:35:13;13.77;;;10.45;;
81229;SDS011;70701;44.452;18.652;2023-06-14T06:37:39;14.07;;;10.68;;
81229;SDS011;70701;44.452;18.652;2023-06-14T06:40:07;15.05;;;11.15;;
81229;SDS011;70701;44.452;18.652;2023-06-14T06:42:36;14.00;;;9.40;;
81229;SDS011;70701;44.452;18.652;2023-06-14T06:45:04;10.85;;;8.75;;
81229;SDS011;70701;44.452;18.652;2023-06-14T06:47:30;13.10;;;10.48;;
81229;SDS011;70701;44.452;18.652;2023-06-14T06:49:56;13.90;;;10.82;;
81229;SDS011;70701;44.452;18.652;2023-06-14T06:52:22;14.75;;;11.55;;
81229;SDS011;70701;44.452;18.652;2023-06-14T06:54:47;12.65;;;10.27;;
81229;SDS011;70701;44.452;18.652;2023-06-14T06:57:14;12.73;;;9.73;;
81229;SDS011;70701;44.452;18.652;2023-06-14T06:59:40;12.50;;;10.05;;
81229;SDS011;70701;44.452;18.652;2023-06-14T07:02:05;15.40;;;11.10;;
81229;SDS011;70701;44.452;18.652;2023-06-14T07:04:31;14.25;;;10.70;;
81229;SDS011;70701;44.452;18.652;2023-06-14T07:06:57;14.95;;;11.05;;
81229;SDS011;70701;44.452;18.652;2023-06-14T07:09:22;16.73;;;10.27;;
81229;SDS011;70701;44.452;18.652;2023-06-14T07:11:49;15.77;;;10.98;;
81229;SDS011;70701;44.452;18.652;2023-06-14T07:14:15;14.30;;;11.02;;
81229;SDS011;70701;44.452;18.652;2023-06-14T07:16:41;13.85;;;10.50;;
81229;SDS011;70701;44.452;18.652;2023-06-14T07:19:08;19.38;;;11.93;;
81229;SDS011;70701;44.452;18.652;2023-06-14T07:21:34;19.25;;;11.40;;
81229;SDS011;70701;44.452;18.652;2023-06-14T07:24:00;16.52;;;11.30;;
81229;SDS011;70701;44.452;18.652;2023-06-14T07:26:26;17.17;;;11.50;;
81229;SDS011;70701;44.452;18.652;2023-06-14T07:28:52;18.58;;;11.77;;
81229;SDS011;70701;44.452;18.652;2023-06-14T07:31:17;16.73;;;11.60;;
81229;SDS011;70701;44.452;18.652;2023-06-14T07:33:44;16.38;;;11.90;;
81229;SDS011;70701;44.452;18.652;2023-06-14T07:36:10;16.75;;;13.00;;
81229;SDS011;70701;44.452;18.652;2023-06-14T07:38:36;17.90;;;13.07;;
81229;SDS011;70701;44.452;18.652;2023-06-14T07:41:01;12.40;;;10.07;;
81229;SDS011;70701;44.452;18.652;2023-06-14T07:43:28;16.92;;;11.43;;
81229;SDS011;70701;44.452;18.652;2023-06-14T07:45:53;14.68;;;10.48;;
81229;SDS011;70701;44.452;18.652;2023-06-14T07:48:20;14.43;;;10.05;;
81229;SDS011;70701;44.452;18.652;2023-06-14T07:50:46;11.27;;;8.63;;
81229;SDS011;70701;44.452;18.652;2023-06-14T07:53:11;10.32;;;7.57;;
81229;SDS011;70701;44.452;18.652;2023-06-14T07:55:37;15.15;;;10.60;;
81229;SDS011;70701;44.452;18.652;2023-06-14T07:58:04;10.40;;;8.57;;
81229;SDS011;70701;44.452;18.652;2023-06-14T08:00:33;17.83;;;11.80;;
81229;SDS011;70701;44.452;18.652;2023-06-14T08:02:58;10.80;;;8.77;;
81229;SDS011;70701;44.452;18.652;2023-06-14T08:05:27;11.45;;;9.23;;
81229;SDS011;70701;44.452;18.652;2023-06-14T08:07:54;13.10;;;9.60;;
81229;SDS011;70701;44.452;18.652;2023-06-14T08:10:21;19.83;;;16.13;;
81229;SDS011;70701;44.452;18.652;2023-06-14T08:12:48;46.17;;;33.38;;
81229;SDS011;70701;44.452;18.652;2023-06-14T08:15:15;18.40;;;14.07;;
81229;SDS011;70701;44.452;18.652;2023-06-14T08:17:44;21.58;;;12.43;;
81229;SDS011;70701;44.452;18.652;2023-06-14T08:20:10;24.90;;;18.02;;
81229;SDS011;70701;44.452;18.652;2023-06-14T08:22:38;18.83;;;12.18;;
81229;SDS011;70701;44.452;18.652;2023-06-14T08:25:04;34.17;;;24.38;;
81229;SDS011;70701;44.452;18.652;2023-06-14T08:27:31;27.60;;;17.38;;
81229;SDS011;70701;44.452;18.652;2023-06-14T08:29:57;16.90;;;15.02;;
81229;SDS011;70701;44.452;18.652;2023-06-14T08:32:23;26.13;;;18.23;;
81229;SDS011;70701;44.452;18.652;2023-06-14T08:34:48;26.20;;;18.60;;
81229;SDS011;70701;44.452;18.652;2023-06-14T08:37:14;22.58;;;15.63;;
81229;SDS011;70701;44.452;18.652;2023-06-14T08:39:40;16.65;;;14.75;;
81229;SDS011;70701;44.452;18.652;2023-06-14T08:42:07;18.70;;;14.07;;
81229;SDS011;70701;44.452;18.652;2023-06-14T08:44:34;21.55;;;14.95;;
81229;SDS011;70701;44.452;18.652;2023-06-14T08:47:00;17.05;;;13.95;;
81229;SDS011;70701;44.452;18.652;2023-06-14T08:49:26;15.82;;;13.60;;
81229;SDS011;70701;44.452;18.652;2023-06-14T08:51:57;25.38;;;20.25;;
81229;SDS011;70701;44.452;18.652;2023-06-14T08:54:28;15.43;;;12.25;;
81229;SDS011;70701;44.452;18.652;2023-06-14T08:56:56;15.65;;;12.05;;
81229;SDS011;70701;44.452;18.652;2023-06-14T08:59:25;14.15;;;11.98;;
81229;SDS011;70701;44.452;18.652;2023-06-14T09:01:52;16.98;;;11.75;;
81229;SDS011;70701;44.452;18.652;2023-06-14T09:04:20;15.10;;;12.40;;
81229;SDS011;70701;44.452;18.652;2023-06-14T09:06:47;17.73;;;13.18;;
81229;SDS011;70701;44.452;18.652;2023-06-14T09:09:21;16.25;;;13.85;;
81229;SDS011;70701;44.452;18.652;2023-06-14T09:11:51;17.77;;;14.15;;
81229;SDS011;70701;44.452;18.652;2023-06-14T09:14:21;16.88;;;11.43;;
81229;SDS011;70701;44.452;18.652;2023-06-14T09:16:51;16.10;;;11.40;;
81229;SDS011;70701;44.452;18.652;2023-06-14T09:19:25;15.10;;;12.05;;
81229;SDS011;70701;44.452;18.652;2023-06-14T09:21:52;14.18;;;11.95;;
81229;SDS011;70701;44.452;18.652;2023-06-14T09:24:19;19.42;;;15.55;;
81229;SDS011;70701;44.452;18.652;2023-06-14T09:26:48;17.00;;;13.68;;
81229;SDS011;70701;44.452;18.652;2023-06-14T09:29:17;18.13;;;15.20;;
81229;SDS011;70701;44.452;18.652;2023-06-14T09:31:47;19.67;;;14.88;;
81229;SDS011;70701;44.452;18.652;2023-06-14T09:34:13;15.48;;;12.57;;
81229;SDS011;70701;44.452;18.652;2023-06-14T09:36:39;13.45;;;11.82;;
81229;SDS011;70701;44.452;18.652;2023-06-14T09:39:06;15.55;;;11.88;;
81229;SDS011;70701;44.452;18.652;2023-06-14T09:44:00;16.13;;;13.80;;
81229;SDS011;70701;44.452;18.652;2023-06-14T09:46:30;19.05;;;14.45;;
81229;SDS011;70701;44.452;18.652;2023-06-14T09:48:59;23.17;;;14.65;;
81229;SDS011;70701;44.452;18.652;2023-06-14T09:51:27;16.23;;;12.55;;
81229;SDS011;70701;44.452;18.652;2023-06-14T09:53:58;16.42;;;14.27;;
81229;SDS011;70701;44.452;18.652;2023-06-14T09:56:40;25.60;;;19.58;;
81229;SDS011;70701;44.452;18.652;2023-06-14T09:59:10;20.10;;;15.43;;
81229;SDS011;70701;44.452;18.652;2023-06-14T10:01:41;17.63;;;14.32;;
81229;SDS011;70701;44.452;18.652;2023-06-14T10:04:10;12.65;;;10.40;;
81229;SDS011;70701;44.452;18.652;2023-06-14T10:06:37;13.52;;;12.00;;
81229;SDS011;70701;44.452;18.652;2023-06-14T10:09:06;14.60;;;13.02;;
81229;SDS011;70701;44.452;18.652;2023-06-14T10:11:33;21.02;;;16.88;;
81229;SDS011;70701;44.452;18.652;2023-06-14T10:14:00;19.40;;;15.27;;
81229;SDS011;70701;44.452;18.652;2023-06-14T10:16:33;28.75;;;21.27;;
81229;SDS011;70701;44.452;18.652;2023-06-14T10:24:51;18.65;;;14.90;;
81229;SDS011;70701;44.452;18.652;2023-06-14T10:27:18;21.67;;;16.35;;
81229;SDS011;70701;44.452;18.652;2023-06-14T10:32:24;25.77;;;9.80;;
81229;SDS011;70701;44.452;18.652;2023-06-14T10:34:59;11.88;;;10.18;;
81229;SDS011;70701;44.452;18.652;2023-06-14T10:37:34;13.98;;;9.55;;
81229;SDS011;70701;44.452;18.652;2023-06-14T10:40:00;17.98;;;11.00;;
81229;SDS011;70701;44.452;18.652;2023-06-14T10:42:32;12.32;;;9.65;;
81229;SDS011;70701;44.452;18.652;2023-06-14T10:44:58;11.63;;;9.05;;
81229;SDS011;70701;44.452;18.652;2023-06-14T10:47:32;13.13;;;8.65;;
81229;SDS011;70701;44.452;18.652;2023-06-14T10:50:09;19.92;;;13.35;;
81229;SDS011;70701;44.452;18.652;2023-06-14T10:52:40;15.45;;;11.65;;
81229;SDS011;70701;44.452;18.652;2023-06-14T10:57:50;16.73;;;10.15;;
81229;SDS011;70701;44.452;18.652;2023-06-14T11:00:17;23.23;;;13.80;;
81229;SDS011;70701;44.452;18.652;2023-06-14T11:10:41;15.82;;;10.35;;
81229;SDS011;70701;44.452;18.652;2023-06-14T11:13:08;20.15;;;9.90;;
81229;SDS011;70701;44.452;18.652;2023-06-14T11:15:38;14.70;;;9.75;;
81229;SDS011;70701;44.452;18.652;2023-06-14T11:20:37;12.40;;;8.35;;
81229;SDS011;70701;44.452;18.652;2023-06-14T11:23:03;18.30;;;9.32;;
81229;SDS011;70701;44.452;18.652;2023-06-14T11:25:29;19.33;;;11.10;;
81229;SDS011;70701;44.452;18.652;2023-06-14T11:27:55;17.33;;;9.68;;
81229;SDS011;70701;44.452;18.652;2023-06-14T11:30:22;10.73;;;7.28;;
81229;SDS011;70701;44.452;18.652;2023-06-14T11:32:49;13.23;;;7.50;;
81229;SDS011;70701;44.452;18.652;2023-06-14T11:35:17;10.82;;;7.65;;
81229;SDS011;70701;44.452;18.652;2023-06-14T11:37:43;9.27;;;7.03;;
81229;SDS011;70701;44.452;18.652;2023-06-14T11:40:10;12.02;;;6.80;;
81229;SDS011;70701;44.452;18.652;2023-06-14T11:42:37;10.23;;;7.18;;
81229;SDS011;70701;44.452;18.652;2023-06-14T11:45:10;27.20;;;8.73;;
81229;SDS011;70701;44.452;18.652;2023-06-14T11:47:37;16.38;;;7.47;;
81229;SDS011;70701;44.452;18.652;2023-06-14T11:50:05;9.90;;;6.80;;
81229;SDS011;70701;44.452;18.652;2023-06-14T11:52:33;17.00;;;6.72;;
81229;SDS011;70701;44.452;18.652;2023-06-14T11:54:59;9.20;;;6.28;;
81229;SDS011;70701;44.452;18.652;2023-06-14T11:57:30;13.82;;;9.55;;
81229;SDS011;70701;44.452;18.652;2023-06-14T11:59:58;16.05;;;12.82;;
81229;SDS011;70701;44.452;18.652;2023-06-14T12:02:24;20.58;;;15.00;;
81229;SDS011;70701;44.452;18.652;2023-06-14T12:04:52;12.27;;;7.93;;
81229;SDS011;70701;44.452;18.652;2023-06-14T12:07:18;10.38;;;5.57;;
81229;SDS011;70701;44.452;18.652;2023-06-14T12:12:23;10.60;;;5.70;;
81229;SDS011;70701;44.452;18.652;2023-06-14T12:14:57;8.57;;;5.43;;
81229;SDS011;70701;44.452;18.652;2023-06-14T12:17:23;14.52;;;6.63;;
81229;SDS011;70701;44.452;18.652;2023-06-14T12:19:49;18.90;;;5.82;;
81229;SDS011;70701;44.452;18.652;2023-06-14T12:22:15;12.00;;;5.75;;
81229;SDS011;70701;44.452;18.652;2023-06-14T12:24:42;8.30;;;5.55;;
81229;SDS011;70701;44.452;18.652;2023-06-14T12:27:08;8.00;;;4.90;;
81229;SDS011;70701;44.452;18.652;2023-06-14T12:29:36;7.88;;;6.03;;
81229;SDS011;70701;44.452;18.652;2023-06-14T12:32:02;11.88;;;9.05;;
81229;SDS011;70701;44.452;18.652;2023-06-14T12:34:28;14.20;;;10.63;;
81229;SDS011;70701;44.452;18.652;2023-06-14T12:36:54;12.30;;;8.00;;
81229;SDS011;70701;44.452;18.652;2023-06-14T12:39:20;12.48;;;9.15;;
81229;SDS011;70701;44.452;18.652;2023-06-14T12:41:46;13.02;;;7.93;;
81229;SDS011;70701;44.452;18.652;2023-06-14T12:44:12;11.77;;;6.68;;
81229;SDS011;70701;44.452;18.652;2023-06-14T12:46:41;9.20;;;5.88;;
81229;SDS011;70701;44.452;18.652;2023-06-14T12:49:12;11.10;;;6.43;;
81229;SDS011;70701;44.452;18.652;2023-06-14T12:51:38;8.98;;;6.65;;
81229;SDS011;70701;44.452;18.652;2023-06-14T12:54:05;9.80;;;5.93;;
81229;SDS011;70701;44.452;18.652;2023-06-14T12:56:31;7.28;;;5.88;;
81229;SDS011;70701;44.452;18.652;2023-06-14T12:58:57;12.70;;;6.50;;
81229;SDS011;70701;44.452;18.652;2023-06-14T13:01:24;13.77;;;10.90;;
81229;SDS011;70701;44.452;18.652;2023-06-14T13:03:49;12.73;;;9.55;;
81229;SDS011;70701;44.452;18.652;2023-06-14T13:06:17;14.68;;;10.98;;
81229;SDS011;70701;44.452;18.652;2023-06-14T13:08:43;32.63;;;27.20;;
81229;SDS011;70701;44.452;18.652;2023-06-14T13:11:08;11.88;;;6.63;;
81229;SDS011;70701;44.452;18.652;2023-06-14T13:13:34;7.47;;;5.18;;
81229;SDS011;70701;44.452;18.652;2023-06-14T13:16:00;8.52;;;5.45;;
81229;SDS011;70701;44.452;18.652;2023-06-14T13:18:26;7.88;;;5.38;;
81229;SDS011;70701;44.452;18.652;2023-06-14T13:20:52;7.07;;;5.07;;
81229;SDS011;70701;44.452;18.652;2023-06-14T13:23:18;10.25;;;5.32;;
81229;SDS011;70701;44.452;18.652;2023-06-14T13:25:43;7.15;;;4.70;;
81229;SDS011;70701;44.452;18.652;2023-06-14T13:28:10;20.10;;;13.80;;
81229;SDS011;70701;44.452;18.652;2023-06-14T13:30:35;15.98;;;11.98;;
81229;SDS011;70701;44.452;18.652;2023-06-14T13:33:02;20.75;;;15.35;;
81229;SDS011;70701;44.452;18.652;2023-06-14T13:35:28;14.05;;;9.45;;
81229;SDS011;70701;44.452;18.652;2023-06-14T13:37:54;10.85;;;7.82;;
81229;SDS011;70701;44.452;18.652;2023-06-14T13:40:20;12.27;;;8.02;;
81229;SDS011;70701;44.452;18.652;2023-06-14T13:42:46;9.55;;;6.82;;
81229;SDS011;70701;44.452;18.652;2023-06-14T13:45:12;7.82;;;5.90;;
81229;SDS011;70701;44.452;18.652;2023-06-14T13:47:38;7.32;;;5.32;;
81229;SDS011;70701;44.452;18.652;2023-06-14T13:50:04;7.85;;;5.40;;
81229;SDS011;70701;44.452;18.652;2023-06-14T13:52:32;19.30;;;14.65;;
81229;SDS011;70701;44.452;18.652;2023-06-14T13:54:57;22.77;;;15.98;;
81229;SDS011;70701;44.452;18.652;2023-06-14T13:57:24;17.63;;;13.52;;
81229;SDS011;70701;44.452;18.652;2023-06-14T13:59:51;16.13;;;11.13;;
81229;SDS011;70701;44.452;18.652;2023-06-14T14:02:18;14.57;;;9.93;;
81229;SDS011;70701;44.452;18.652;2023-06-14T14:04:44;10.00;;;6.75;;
81229;SDS011;70701;44.452;18.652;2023-06-14T14:07:09;8.50;;;6.28;;
81229;SDS011;70701;44.452;18.652;2023-06-14T14:09:35;7.80;;;5.50;;
81229;SDS011;70701;44.452;18.652;2023-06-14T14:12:01;9.60;;;5.97;;
81229;SDS011;70701;44.452;18.652;2023-06-14T14:14:28;8.07;;;5.15;;
81229;SDS011;70701;44.452;18.652;2023-06-14T14:16:53;13.45;;;10.07;;
81229;SDS011;70701;44.452;18.652;2023-06-14T14:19:20;11.52;;;7.50;;
81229;SDS011;70701;44.452;18.652;2023-06-14T14:21:47;14.32;;;9.82;;
81229;SDS011;70701;44.452;18.652;2023-06-14T14:24:13;23.65;;;18.33;;
81229;SDS011;70701;44.452;18.652;2023-06-14T14:26:39;20.77;;;14.70;;
81229;SDS011;70701;44.452;18.652;2023-06-14T14:29:06;10.15;;;7.20;;
81229;SDS011;70701;44.452;18.652;2023-06-14T14:31:31;9.70;;;6.88;;
81229;SDS011;70701;44.452;18.652;2023-06-14T14:33:57;11.32;;;6.53;;
81229;SDS011;70701;44.452;18.652;2023-06-14T14:36:23;12.32;;;8.30;;
81229;SDS011;70701;44.452;18.652;2023-06-14T14:38:48;18.00;;;13.82;;
81229;SDS011;70701;44.452;18.652;2023-06-14T14:41:14;26.90;;;20.73;;
81229;SDS011;70701;44.452;18.652;2023-06-14T14:43:39;22.27;;;16.85;;
81229;SDS011;70701;44.452;18.652;2023-06-14T14:46:05;18.58;;;13.02;;
81229;SDS011;70701;44.452;18.652;2023-06-14T14:48:31;11.07;;;6.90;;
81229;SDS011;70701;44.452;18.652;2023-06-14T14:51:00;9.00;;;6.50;;